Maryland METAR Reports


Distance/Direction noted is from Ellicott City, MD as the crow flies

KCBE - Cumberland - 118 miles WNW
Updated: Fri, 04/18/2014 2:20 PM
Clear
Clear
 Wind from S
Wind: S 7 mph
Temperature: 59°F
Dew Point: 34°F
Humidity: 39%
Barometer: 30.36 inHg
Clouds: Clear
Visibility: 10 miles
2014/04/18 18:20 KCBE 181820Z AUTO 19006KT 10SM CLR 15/01 A3036 RMK AO1
KHGR - Hagerstown - 57 miles NW
Updated: Fri, 04/18/2014 1:53 PM
Clear
Clear
 Wind from varies
Wind: varies 5 mph
Temperature: 48°F
Wind Chill: 46°F
Dew Point: 32°F
Humidity: 54%
Barometer: 30.37 inHg
Clouds: Clear
Visibility: 10 miles
2014/04/18 17:53 KHGR 181753Z VRB04KT 10SM CLR 09/00 A3037 RMK AO2 SLP299 T00940000 10094 20022 58029
 
KFDK - Frederick - 34 miles NW
Updated: Fri, 04/18/2014 1:55 PM
Clear
Clear
 Wind from ESE
Wind: ESE 5 mph
Temperature: 52°F
Dew Point: 37°F
Humidity: 58%
Barometer: 30.43 inHg
Clouds: Clear
Visibility: 10 miles
2014/04/18 17:55 KFDK 181755Z 12004KT 10SM SKC 11/03 A3043
KGAI - Gaithersburg - 26 miles SW
Updated: Fri, 04/18/2014 2:15 PM
Clear
Clear
 Wind from SE
Wind: SE 9 mph
Temperature: 50°F
Wind Chill: 46°F
Dew Point: 32°F
Humidity: 50%
Barometer: 30.41 inHg
Clouds: Clear
Visibility: 10 miles
2014/04/18 18:15 KGAI 181815Z AUTO 13008KT 10SM CLR 10/00 A3041 RMK AO1
 
KBWI - BWI Airport - 15 miles SE
Updated: Fri, 04/18/2014 1:54 PM
Overcast
Overcast
 Wind from varies
Wind: varies 6 mph
Temperature: 46°F
Wind Chill: 43°F
Dew Point: 32°F
Humidity: 57%
Barometer: 30.42 inHg
Clouds: Overcast
Visibility: 10 miles
Cloud Details: Partly Cloudy 9000 ft
Overcast 15000 ft
2014/04/18 17:54 KBWI 181754Z VRB05KT 10SM SCT090 OVC150 08/00 A3042 RMK AO2 SLP302 T00830000 10083 20039 58020
KNAK - Annapolis - 32 miles SSE
Updated: Fri, 04/18/2014 1:54 PM
Clear
Clear
 Wind from SE
Wind: SE 5 mph
Temperature: 46°F
Wind Chill: 44°F
Dew Point: 34°F
Humidity: 62%
Barometer: 30.44 inHg
Clouds: Clear
Visibility: 10 miles
2014/04/18 17:54 KNAK 181754Z AUTO 13004KT 10SM CLR 08/01 A3044 RMK AO2 SLP309 T00780011 10078 20050 58018
 
KESN - Easton - 63 miles SE
Updated: Fri, 04/18/2014 1:50 PM
Overcast
Overcast
 Wind from NNE
Wind: NNE 6 mph
Temperature: 54°F
Dew Point: 39°F
Humidity: 58%
Barometer: 30.46 inHg
Clouds: Overcast
Visibility: 10 miles
Cloud Details: Overcast 10000 ft
2014/04/18 17:50 KESN 181750Z 03005KT 10SM OVC100 12/04 A3046
KSBY - Salisbury - 112 miles SE
Updated: Fri, 04/18/2014 1:54 PM
Clear
Clear
 Wind from ENE
Wind: ENE 3 mph
Temperature: 55°F
Dew Point: 36°F
Humidity: 47%
Barometer: 30.41 inHg
Clouds: Clear
Visibility: 10 miles
2014/04/18 17:54 KSBY 181754Z 06003KT 10SM CLR 13/02 A3041 RMK AO2 SLP300 T01280022 10133 20061 58018